Gosnold, Massachusetts
Current Conditions -  °F | °C
As of 7:53 AM on Saturday 01 Nov 2014 (Local Time) from KMVY Reporting Station
Light Rain Light Rain  
Wind Chill: 50°   Ceiling: 2100
Heat Index: 50°   Visibility: 9mi
Dew Point: 48°   Wind: 20mph
Humidity: 93%   Direction: 20°NNE
Pressure: 29.79"   Gusts: 26mph
Location:  41.4796°N, 70.7571°W
Report Text: KMVY 011153Z 02017G23KT 9SM -RA SCT014 OVC021 10/09 A2979 RMK AO2 RAB31 SLP088 P0001 60001 70001 T01000089 10106 20100 58006
Loading
Personal Weather Stations






























Interactive Weather Map
Tropical Storm Tracking
New forecast layout! Learn more

10-Day Weather Forecast

Advertisements
Track Severe Weather on mobile